Turvolandia, Brazil
Current Conditions -  °F | °C
As of 11:00 PM on Wednesday 22 Oct 2014 (Local Time) from SBSJ Reporting Station
Overcast Overcast  
Wind Chill: 66°   Ceiling: 2000
Heat Index: 66°   Visibility: 6mi
Dew Point: 57°   Wind: 12mph
Humidity: 73%   Direction: 120°ESE
Pressure: 30.24"   Gusts: NA
Location:  21.88°S, 45.79°W
Report Text: SBSJ 230100Z 12010KT 9999 OVC020 19/14 Q1024
Loading
Personal Weather Stations






























Interactive Weather Map
Tropical Storm Tracking
New forecast layout! Learn more

10-Day Weather Forecast

Advertisements
Track Severe Weather on mobile